Briefing drone pour Le bosc-roger-en-roumois

Rechercher une autre localisation

Conditions de vol :


Nous sommes le : Jeudi 29 septembre 2022
Il est 00:58 UTC (02:58 LT)

Lever de soleil : 05:26 UTC (07:26 LT)
Coucher de soleil : 18:06 UTC (20:06 LT)

Météo

L'essentiel des conditions de vol

VIGILANCE MÉTÉO FRANCE - Eure (27)
Pas de vigilances particulieres
CARTE TEMSI
CARTES DES FRONTS
METAR de LFOP
LFOP 290030Z AUTO 21003KT CAVOK 09/08 Q1000

Date d'émission: 29/09/2022
Heure d'émission: 00:30 UTC
Vent: 210° pour 3 KT (6 km/h)
Visibilité horizontale: > 10 km
Plafond : Plafond et visibilité OK (CAVOK)
Température: 9 °C
Point de rosée: 8 °C
Humidité: 93%
Pression (QNH): 1000 hPa
TAF de LFOP
LFOP 282000Z 2820/2918 CNL

Conditions prévues :

Heure d'émission : Bulletin éffectué le 28 à 20:00 UTC
Prévision : Valide du 28 a 20:00 UTC au 29 a 18:00 UTC
Nuages : à 0ft (0 m)
WEBCAM POUR LE BOSC-ROGER-EN-ROUMOIS

Réglementation

Voler en sécurité

CARTES AERONAUTIQUE 1/500.000
CARTE AZBA (Reseau basse altitude)
CARTES VAC (LFOP)
SUP AIP




Chargement des AIP...
NOTAM (LE BOSC-ROGER-EN-ROUMOIS + Terrain à proximité / FIR )




Chargement des NOTAMS...
CONTACT PREFECTURE 27


Avertissement : Les données mises à disposition sont indicatives. Oxygène Drone ne pourra être tenu responsable de dégâts causés aux biens et aux personnes.